St Johns Wood, United Kingdom
Current Conditions -  °F | °C
As of 6:20 AM on Monday 26 Jan 2015 (Local Time) from EGLC Reporting Station
Drizzle Drizzle  
Wind Chill: 50°   Ceiling: 1300
Heat Index: 50°   Visibility: 6mi
Dew Point: 45°   Wind: 13mph
Humidity: 82%   Direction: 250°WSW
Pressure: 30.15"   Gusts: NA
Location:  51.53°N, 0.18°W
Report Text: EGLC 260620Z 25011KT 9999 -DZ BKN013 10/07 Q1021
Loading
Personal Weather Stations






























Interactive Weather Map New forecast layout! Learn more

10-Day Weather Forecast

Advertisements
Track Severe Weather on mobile